Time;durP1;ratioP1;P1;durP2;ratioP2;P2;SDS_P1;SDS_P2;PMS_P1;PMS_P2;Temp;Humidity;BMP_temperature;BMP_pressure;BME280_temperature;BME280_humidity;BME280_pressure;Samples;Min_cycle;Max_cycle;Signal;HPM_P1;HPM_P2
2022/10/02 00:01:54;;;;;;;16.77;4.05;;;16.70;56.80;;;;;;4965548;28;20061;-46
2022/10/02 00:04:25;;;;;;;19.90;3.40;;;16.70;56.90;;;;;;4964400;28;20086;-44
2022/10/02 00:06:57;;;;;;;19.25;3.80;;;16.70;57.00;;;;;;4963267;28;20066;-41
2022/10/02 00:09:32;;;;;;;19.27;3.45;;;16.70;57.00;;;;;;4964339;28;20050;-44
2022/10/02 00:12:00;;;;;;;13.07;2.83;;;16.70;57.20;;;;;;4964685;28;20403;-43
2022/10/02 00:14:34;;;;;;;17.92;2.97;;;16.70;57.20;;;;;;4965645;28;20407;-42
2022/10/02 00:17:03;;;;;;;9.95;2.03;;;16.70;57.20;;;;;;4962965;28;20062;-46
2022/10/02 00:19:30;;;;;;;12.32;2.63;;;16.80;57.30;;;;;;4966184;28;20109;-45
2022/10/02 00:22:11;;;;;;;11.13;2.35;;;16.80;57.30;;;;;;4963359;28;20058;-41
2022/10/02 00:24:47;;;;;;;13.90;2.05;;;16.80;57.40;;;;;;4963178;28;20495;-43
2022/10/02 00:27:34;;;;;;;9.18;1.75;;;16.80;57.40;;;;;;4962340;28;20077;-44
2022/10/02 00:30:02;;;;;;;8.15;2.35;;;16.80;57.30;;;;;;4963508;28;20410;-41
2022/10/02 00:32:34;;;;;;;16.23;2.20;;;16.80;57.30;;;;;;4964483;28;20062;-47
2022/10/02 00:35:35;;;;;;;11.25;1.90;;;16.90;57.30;;;;;;4964415;28;20057;-44
2022/10/02 00:38:12;;;;;;;13.85;2.35;;;16.90;57.40;;;;;;4966335;28;21100;-40
2022/10/02 00:41:09;;;;;;;11.73;3.00;;;16.90;57.30;;;;;;4963632;28;20430;-47
2022/10/02 00:43:48;;;;;;;16.70;3.30;;;16.90;57.40;;;;;;4964328;28;20659;-39
2022/10/02 00:46:30;;;;;;;10.05;2.00;;;16.90;57.30;;;;;;4964282;28;20054;-43
2022/10/02 00:49:13;;;;;;;10.73;2.13;;;16.90;57.30;;;;;;4964300;28;20482;-43
2022/10/02 00:51:52;;;;;;;13.40;1.80;;;16.90;57.40;;;;;;4964830;28;20057;-44
2022/10/02 00:54:45;;;;;;;11.18;2.50;;;16.90;57.40;;;;;;4963462;28;20066;-45
2022/10/02 00:57:25;;;;;;;16.70;2.38;;;17.00;57.40;;;;;;4965064;28;20057;-42
2022/10/02 01:00:06;;;;;;;12.55;2.83;;;17.00;57.40;;;;;;4963240;28;20058;-41
2022/10/02 01:03:04;;;;;;;10.80;1.88;;;17.00;57.50;;;;;;4965806;28;20062;-41
2022/10/02 01:05:32;;;;;;;15.25;2.38;;;17.00;57.50;;;;;;4962274;28;20061;-47
2022/10/02 01:08:01;;;;;;;11.90;2.72;;;17.00;57.40;;;;;;4962683;28;20392;-46
2022/10/02 01:10:29;;;;;;;13.90;2.35;;;17.00;57.50;;;;;;4964220;28;20502;-41
2022/10/02 01:12:58;;;;;;;11.07;2.00;;;17.00;57.50;;;;;;4961985;28;20050;-43
2022/10/02 01:15:31;;;;;;;15.90;2.25;;;17.00;57.60;;;;;;4961003;28;21064;-45
2022/10/02 01:18:00;;;;;;;9.85;2.30;;;17.00;57.70;;;;;;4962218;28;20054;-48
2022/10/02 01:20:35;;;;;;;13.40;2.78;;;17.10;57.70;;;;;;4963647;28;20537;-43
2022/10/02 01:23:11;;;;;;;12.43;2.28;;;17.10;57.70;;;;;;4963260;28;20054;-40
2022/10/02 01:25:40;;;;;;;9.60;2.05;;;17.10;57.80;;;;;;4964102;28;20050;-44
2022/10/02 01:28:07;;;;;;;16.10;2.63;;;17.10;57.70;;;;;;4962896;28;20354;-40
2022/10/02 01:30:39;;;;;;;13.55;2.05;;;17.10;57.80;;;;;;4967181;28;20065;-42
2022/10/02 01:33:06;;;;;;;16.27;2.40;;;17.10;57.80;;;;;;4961615;28;20054;-40
2022/10/02 01:35:37;;;;;;;14.52;2.33;;;17.10;57.80;;;;;;4965013;28;20054;-44
2022/10/02 01:38:08;;;;;;;12.10;2.40;;;17.10;57.90;;;;;;4963184;28;20061;-42
2022/10/02 01:40:37;;;;;;;15.48;2.65;;;17.10;57.90;;;;;;4960425;28;21308;-42
2022/10/02 01:43:09;;;;;;;9.32;2.15;;;17.10;57.90;;;;;;4964001;28;20047;-42
2022/10/02 01:45:50;;;;;;;9.65;2.25;;;17.10;57.90;;;;;;4962394;28;20065;-40
2022/10/02 01:48:29;;;;;;;12.40;2.55;;;17.10;57.90;;;;;;4962583;28;20054;-40
2022/10/02 01:51:06;;;;;;;17.85;2.72;;;17.10;57.90;;;;;;4962878;28;20061;-45
2022/10/02 01:53:42;;;;;;;14.02;2.20;;;17.10;57.90;;;;;;4966822;28;20430;-43
2022/10/02 01:56:18;;;;;;;12.55;2.08;;;17.10;58.00;;;;;;4961309;28;20046;-42
2022/10/02 01:58:57;;;;;;;14.88;2.53;;;17.10;58.00;;;;;;4964046;28;20582;-42
2022/10/02 02:01:41;;;;;;;13.25;2.53;;;17.10;58.00;;;;;;4962760;28;20065;-41
2022/10/02 02:04:14;;;;;;;;;;;17.10;58.00;;;;;;4963324;28;20491;-47
2022/10/02 02:06:51;;;;;;;9.50;1.88;;;17.10;57.90;;;;;;4965501;28;19926;-41
2022/10/02 02:09:22;;;;;;;10.98;2.50;;;17.10;57.80;;;;;;4962194;28;20050;-42
2022/10/02 02:11:56;;;;;;;11.75;2.20;;;17.10;57.90;;;;;;4962068;28;20422;-40
2022/10/02 02:14:30;;;;;;;13.38;2.55;;;17.10;58.00;;;;;;4962133;28;20073;-41
2022/10/02 02:17:07;;;;;;;11.40;2.20;;;17.10;58.00;;;;;;4959991;28;20419;-41
2022/10/02 02:19:40;;;;;;;16.20;2.47;;;17.10;58.00;;;;;;4964873;28;20046;-42
2022/10/02 02:22:11;;;;;;;12.48;2.90;;;17.10;58.10;;;;;;4927263;28;20047;-42
2022/10/02 02:24:43;;;;;;;14.35;2.60;;;17.10;58.10;;;;;;4924492;28;20059;-43
2022/10/02 02:27:13;;;;;;;10.60;2.70;;;17.10;58.10;;;;;;4924206;28;20066;-40
2022/10/02 02:29:44;;;;;;;11.80;2.47;;;17.10;58.10;;;;;;4928680;28;20051;-45
2022/10/02 02:32:15;;;;;;;14.45;2.03;;;17.10;58.20;;;;;;4926339;28;20063;-40
2022/10/02 02:34:46;;;;;;;11.18;2.20;;;17.10;58.20;;;;;;4930946;28;20050;-45
2022/10/02 02:37:18;;;;;;;13.65;2.40;;;17.10;58.30;;;;;;4927359;28;20495;-42
2022/10/02 02:39:50;;;;;;;11.82;1.90;;;17.10;58.20;;;;;;4929728;28;22123;-41
2022/10/02 02:42:20;;;;;;;11.63;3.10;;;17.10;58.30;;;;;;4930482;28;20066;-41
2022/10/02 02:44:53;;;;;;;14.55;3.08;;;17.10;58.30;;;;;;4930624;28;20051;-40
2022/10/02 02:47:24;;;;;;;17.17;2.35;;;17.10;58.30;;;;;;4932884;28;20058;-43
2022/10/02 02:49:57;;;;;;;13.68;2.47;;;17.10;58.20;;;;;;4935349;28;20047;-40
2022/10/02 02:52:28;;;;;;;12.13;2.30;;;17.10;58.30;;;;;;4925052;28;20427;-43
2022/10/02 02:55:02;;;;;;;11.60;2.13;;;17.10;58.30;;;;;;4935632;28;20059;-48
2022/10/02 02:57:37;;;;;;;12.27;2.08;;;17.10;58.20;;;;;;4944017;28;20388;-42
2022/10/02 03:00:07;;;;;;;15.45;2.55;;;17.10;58.20;;;;;;4946682;28;20058;-44
2022/10/02 03:02:35;;;;;;;16.60;2.70;;;17.10;58.20;;;;;;4947697;28;20067;-45
2022/10/02 03:05:02;;;;;;;11.18;2.30;;;17.10;58.20;;;;;;4946996;28;20412;-43
2022/10/02 03:07:29;;;;;;;14.40;2.65;;;17.00;58.20;;;;;;4946740;28;20043;-42
2022/10/02 03:10:08;;;;;;;12.63;3.13;;;17.10;58.20;;;;;;4947222;28;20396;-40
2022/10/02 03:12:45;;;;;;;11.23;2.30;;;17.10;58.30;;;;;;4946702;28;20059;-40
2022/10/02 03:15:27;;;;;;;12.73;2.95;;;17.10;58.30;;;;;;4944183;28;20055;-41
2022/10/02 03:18:20;;;;;;;12.73;2.55;;;17.10;58.30;;;;;;4947115;28;20059;-42
2022/10/02 03:20:58;;;;;;;17.55;2.85;;;17.10;58.30;;;;;;4964901;28;20085;-46
2022/10/02 03:23:30;;;;;;;12.52;2.45;;;17.10;58.30;;;;;;4985245;28;20065;-41
2022/10/02 03:26:02;;;;;;;12.95;2.50;;;17.10;58.20;;;;;;4982642;28;20062;-41
2022/10/02 03:28:34;;;;;;;11.70;2.40;;;17.10;58.30;;;;;;4983167;28;20073;-40
2022/10/02 03:31:04;;;;;;;11.95;2.15;;;17.10;58.30;;;;;;4984382;28;20058;-42
2022/10/02 03:33:32;;;;;;;15.02;2.30;;;17.10;58.40;;;;;;4981495;28;20053;-46
2022/10/02 03:36:00;;;;;;;9.98;2.20;;;17.10;58.40;;;;;;4984549;28;20089;-41
2022/10/02 03:38:28;;;;;;;10.57;2.22;;;17.10;58.40;;;;;;4985048;28;20061;-40
2022/10/02 03:40:57;;;;;;;14.75;2.30;;;17.10;58.40;;;;;;4984046;28;20054;-45
2022/10/02 03:43:27;;;;;;;11.90;2.40;;;17.10;58.50;;;;;;4985261;28;20396;-42
2022/10/02 03:45:55;;;;;;;10.90;2.38;;;17.10;58.60;;;;;;4984283;28;20372;-39
2022/10/02 03:48:23;;;;;;;12.60;2.80;;;17.10;58.70;;;;;;4985655;28;20092;-41
2022/10/02 03:50:50;;;;;;;20.08;2.50;;;17.10;58.80;;;;;;4984524;28;20042;-43
2022/10/02 03:53:20;;;;;;;8.45;1.90;;;17.10;58.80;;;;;;4963608;28;20054;-43
2022/10/02 03:55:53;;;;;;;9.90;1.88;;;17.10;59.00;;;;;;4984229;28;20050;-46
2022/10/02 03:58:21;;;;;;;12.65;1.98;;;17.10;59.10;;;;;;4985342;28;20058;-42
2022/10/02 04:00:55;;;;;;;11.85;2.40;;;17.10;59.00;;;;;;4983747;28;20050;-42
2022/10/02 04:03:27;;;;;;;8.05;1.92;;;17.20;59.10;;;;;;4984825;28;20122;-40
2022/10/02 04:06:01;;;;;;;13.55;1.90;;;17.20;59.10;;;;;;4984837;28;20496;-42
2022/10/02 04:08:34;;;;;;;10.63;1.85;;;17.20;59.10;;;;;;4981585;28;20058;-41
2022/10/02 04:11:07;;;;;;;13.47;2.27;;;17.20;59.10;;;;;;4981820;28;20065;-41
2022/10/02 04:13:39;;;;;;;10.02;2.50;;;17.20;59.10;;;;;;4983937;28;20473;-42
2022/10/02 04:16:11;;;;;;;12.45;2.35;;;17.20;59.00;;;;;;4980101;28;20062;-43
2022/10/02 04:18:47;;;;;;;15.48;2.92;;;17.20;59.50;;;;;;4980398;28;20065;-42
2022/10/02 04:21:26;;;;;;;12.27;2.60;;;17.20;59.10;;;;;;4983073;28;20062;-45
2022/10/02 04:23:58;;;;;;;15.93;2.47;;;17.20;59.10;;;;;;4984199;28;20054;-41
2022/10/02 04:26:29;;;;;;;14.10;3.00;;;17.20;59.10;;;;;;4982221;28;20062;-40
2022/10/02 04:29:02;;;;;;;13.38;3.47;;;17.20;59.10;;;;;;4983727;28;20054;-41
2022/10/02 04:31:29;;;;;;;15.50;2.28;;;17.20;59.20;;;;;;4980289;28;20046;-43
2022/10/02 04:34:01;;;;;;;14.23;3.15;;;17.20;59.10;;;;;;4982691;28;20050;-43
2022/10/02 04:36:39;;;;;;;7.95;2.15;;;17.10;59.20;;;;;;4967285;28;20058;-40
2022/10/02 04:39:27;;;;;;;13.50;2.50;;;17.10;59.30;;;;;;4981515;28;20058;-39
2022/10/02 04:42:14;;;;;;;10.35;1.88;;;17.10;59.50;;;;;;4983759;28;20057;-41
2022/10/02 04:44:55;;;;;;;10.73;1.92;;;17.20;59.50;;;;;;4983485;28;20058;-41
2022/10/02 04:47:40;;;;;;;13.93;2.45;;;17.20;59.50;;;;;;4982679;28;20050;-43
2022/10/02 04:50:37;;;;;;;15.52;2.40;;;17.20;59.60;;;;;;4983727;28;20050;-43
2022/10/02 04:53:18;;;;;;;14.25;2.53;;;17.10;59.50;;;;;;4972681;28;20058;-42
2022/10/02 04:56:10;;;;;;;12.82;2.50;;;17.20;59.60;;;;;;4980536;28;20426;-44
2022/10/02 04:59:04;;;;;;;14.45;2.60;;;17.20;59.60;;;;;;4980395;28;20435;-41
2022/10/02 05:01:45;;;;;;;13.85;2.17;;;17.10;59.70;;;;;;4981796;28;20418;-40
2022/10/02 05:04:35;;;;;;;11.10;2.03;;;17.20;59.70;;;;;;4980478;28;20486;-45
2022/10/02 05:07:26;;;;;;;13.55;2.78;;;17.10;59.70;;;;;;4979856;28;20062;-40
2022/10/02 05:10:02;;;;;;;11.15;3.15;;;17.10;59.80;;;;;;4984175;28;20054;-42
2022/10/02 05:12:45;;;;;;;12.15;2.30;;;17.10;59.90;;;;;;4983305;28;20054;-41
2022/10/02 05:15:28;;;;;;;15.57;3.15;;;17.10;59.90;;;;;;4979784;28;21294;-42
2022/10/02 05:18:10;;;;;;;11.87;2.60;;;17.10;60.00;;;;;;4980533;28;20069;-46
2022/10/02 05:20:52;;;;;;;18.42;2.72;;;17.10;59.90;;;;;;4981265;28;20519;-43
2022/10/02 05:23:36;;;;;;;15.18;2.63;;;17.10;60.00;;;;;;4983383;28;20061;-40
2022/10/02 05:26:23;;;;;;;10.07;2.17;;;17.10;60.00;;;;;;4982821;28;20061;-40
2022/10/02 05:29:11;;;;;;;12.18;2.15;;;17.10;60.00;;;;;;4977317;28;20085;-49
2022/10/02 05:31:51;;;;;;;12.75;2.28;;;17.10;60.00;;;;;;4980598;28;20054;-40
2022/10/02 05:34:40;;;;;;;9.75;1.80;;;17.10;60.10;;;;;;4981527;28;20065;-41
2022/10/02 05:37:28;;;;;;;11.13;2.20;;;17.10;60.20;;;;;;4981113;28;20060;-41
2022/10/02 05:40:08;;;;;;;11.90;1.88;;;17.00;60.20;;;;;;4983567;28;20073;-42
2022/10/02 05:42:38;;;;;;;11.52;2.35;;;17.10;60.40;;;;;;4981258;28;20061;-42
2022/10/02 05:45:21;;;;;;;11.02;2.03;;;17.00;60.40;;;;;;4981751;28;20069;-45
2022/10/02 05:47:50;;;;;;;12.07;2.25;;;17.00;60.50;;;;;;4981416;28;20055;-45
2022/10/02 05:50:21;;;;;;;13.13;2.33;;;17.00;60.60;;;;;;4983193;28;20065;-41
2022/10/02 05:52:56;;;;;;;10.77;2.53;;;17.00;60.70;;;;;;4979583;28;20062;-44
2022/10/02 05:55:30;;;;;;;9.82;1.90;;;17.00;60.80;;;;;;4980603;28;20054;-40
2022/10/02 05:58:04;;;;;;;11.38;2.50;;;17.00;60.80;;;;;;4982984;28;20062;-41
2022/10/02 06:00:34;;;;;;;;;;;17.00;60.90;;;;;;4978610;28;20050;-43
2022/10/02 06:03:11;;;;;;;7.03;1.45;;;17.10;60.80;;;;;;4982014;28;20369;-44
2022/10/02 06:05:47;;;;;;;9.13;1.63;;;17.10;60.70;;;;;;4985528;28;20069;-40
2022/10/02 06:08:19;;;;;;;4.53;1.30;;;17.10;60.90;;;;;;4987092;28;20450;-41
2022/10/02 06:10:52;;;;;;;6.63;1.50;;;17.10;61.00;;;;;;4986162;28;20429;-43
2022/10/02 06:13:24;;;;;;;7.93;1.90;;;17.10;61.10;;;;;;4986447;28;20054;-39
2022/10/02 06:16:07;;;;;;;6.53;1.45;;;17.10;61.10;;;;;;4972483;28;20046;-45
2022/10/02 06:18:37;;;;;;;7.90;1.80;;;17.10;61.30;;;;;;4986459;28;20077;-42
2022/10/02 06:21:09;;;;;;;8.40;1.67;;;17.10;61.30;;;;;;4968940;28;20061;-43
2022/10/02 06:23:40;;;;;;;15.25;3.15;;;17.10;61.30;;;;;;4977937;28;21888;-43
2022/10/02 06:26:12;;;;;;;13.52;1.92;;;17.10;61.50;;;;;;4982177;28;20050;-41
2022/10/02 06:28:43;;;;;;;8.77;1.63;;;17.10;61.50;;;;;;4985739;28;20394;-42
2022/10/02 06:31:19;;;;;;;8.23;1.88;;;17.10;61.60;;;;;;4983980;28;20061;-43
2022/10/02 06:33:47;;;;;;;8.68;1.55;;;17.10;61.70;;;;;;4985907;28;20058;-41
2022/10/02 06:36:42;;;;;;;5.57;1.70;;;17.20;61.60;;;;;;4985792;28;20061;-42
2022/10/02 06:39:23;;;;;;;8.95;1.85;;;17.20;62.00;;;;;;4980554;28;20050;-44
2022/10/02 06:42:00;;;;;;;7.20;1.77;;;17.20;61.90;;;;;;4985665;28;20402;-41
2022/10/02 06:44:35;;;;;;;6.05;1.20;;;17.20;61.90;;;;;;4985533;28;20058;-44
2022/10/02 06:47:22;;;;;;;7.75;1.85;;;17.20;61.90;;;;;;4984214;28;20073;-43
2022/10/02 06:50:18;;;;;;;10.45;2.13;;;17.20;61.90;;;;;;4985440;28;20058;-41
2022/10/02 06:52:53;;;;;;;7.47;1.40;;;17.20;62.00;;;;;;4982137;28;20466;-41
2022/10/02 06:55:45;;;;;;;8.85;1.67;;;17.20;61.80;;;;;;4984785;28;20926;-41
2022/10/02 06:58:30;;;;;;;9.73;1.70;;;17.20;62.00;;;;;;4980286;28;20050;-41
2022/10/02 07:01:05;;;;;;;7.63;1.60;;;17.20;61.90;;;;;;4982396;28;20505;-41
2022/10/02 07:03:55;;;;;;;6.57;1.48;;;17.20;61.80;;;;;;4987342;28;20066;-42
2022/10/02 07:06:34;;;;;;;5.32;1.20;;;17.20;62.00;;;;;;4981683;28;20059;-41
2022/10/02 07:09:23;;;;;;;5.85;1.30;;;17.20;62.10;;;;;;4969029;28;20061;-45
2022/10/02 07:12:03;;;;;;;6.80;1.58;;;17.20;62.20;;;;;;4967933;28;20054;-43
2022/10/02 07:14:44;;;;;;;6.65;1.60;;;17.20;62.20;;;;;;4961073;28;20066;-42
2022/10/02 07:17:23;;;;;;;8.73;1.75;;;17.20;62.30;;;;;;4963108;28;20058;-46
2022/10/02 07:20:10;;;;;;;6.80;1.42;;;17.20;62.40;;;;;;4963703;28;20046;-44
2022/10/02 07:22:53;;;;;;;5.22;1.27;;;17.20;62.40;;;;;;4959916;28;20486;-43
2022/10/02 07:25:40;;;;;;;4.03;1.10;;;17.20;62.60;;;;;;4964456;28;20066;-45
2022/10/02 07:28:13;;;;;;;3.55;1.20;;;17.20;62.70;;;;;;4969981;28;20054;-40
2022/10/02 07:30:51;;;;;;;6.88;1.67;;;17.20;62.70;;;;;;4982933;28;20418;-41
2022/10/02 07:33:30;;;;;;;5.70;1.10;;;17.20;62.80;;;;;;4978867;28;20061;-42
2022/10/02 07:36:03;;;;;;;6.60;1.42;;;17.20;62.80;;;;;;4979665;28;20058;-40
2022/10/02 07:39:02;;;;;;;7.05;1.38;;;17.20;62.80;;;;;;4982822;28;20057;-40
2022/10/02 07:42:03;;;;;;;9.93;1.60;;;17.20;63.10;;;;;;4981409;28;20058;-42
2022/10/02 07:44:46;;;;;;;4.68;1.08;;;17.20;63.10;;;;;;4975938;28;20054;-44
2022/10/02 07:47:26;;;;;;;5.47;1.25;;;17.20;63.10;;;;;;4981277;28;20054;-46
2022/10/02 07:49:59;;;;;;;4.88;1.30;;;17.20;63.00;;;;;;4980800;28;20077;-41
2022/10/02 07:52:39;;;;;;;4.65;1.20;;;17.30;63.10;;;;;;4984202;28;20053;-41
2022/10/02 07:55:17;;;;;;;3.10;0.90;;;17.30;63.30;;;;;;4983874;28;20506;-41
2022/10/02 07:57:56;;;;;;;5.25;1.08;;;17.30;63.40;;;;;;4976045;28;20643;-40
2022/10/02 08:00:25;;;;;;;3.17;0.90;;;17.30;63.50;;;;;;4979507;28;20382;-41
2022/10/02 08:02:59;;;;;;;3.33;1.00;;;17.30;63.60;;;;;;4985157;28;20054;-42
2022/10/02 08:05:29;;;;;;;7.38;1.13;;;17.40;63.70;;;;;;4984079;28;20054;-47
2022/10/02 08:08:01;;;;;;;6.53;1.10;;;17.40;63.60;;;;;;4983329;28;20077;-45
2022/10/02 08:10:34;;;;;;;4.35;1.10;;;17.40;63.50;;;;;;4982186;28;20504;-40
2022/10/02 08:13:09;;;;;;;3.88;0.98;;;17.40;63.40;;;;;;4984839;28;20050;-41
2022/10/02 08:15:38;;;;;;;4.13;1.00;;;17.40;63.30;;;;;;4980000;28;20065;-40
2022/10/02 08:18:20;;;;;;;5.13;1.00;;;17.40;63.30;;;;;;4978853;28;20054;-44
2022/10/02 08:28:21;;;;;;;3.53;0.98;;;17.50;63.60;;;;;;4990658;28;20062;-41
2022/10/02 08:31:09;;;;;;;3.85;0.98;;;17.60;63.40;;;;;;4988096;28;20062;-43
2022/10/02 08:33:40;;;;;;;4.80;1.00;;;17.60;63.40;;;;;;4990646;28;20486;-42
2022/10/02 08:36:38;;;;;;;4.60;1.55;;;17.60;63.60;;;;;;4988791;28;20057;-43
2022/10/02 08:39:27;;;;;;;3.17;1.10;;;17.60;63.50;;;;;;4982815;28;20077;-44
2022/10/02 08:42:32;;;;;;;4.63;1.02;;;17.70;63.10;;;;;;4980737;28;20061;-41
2022/10/02 08:45:32;;;;;;;3.33;0.88;;;17.70;62.80;;;;;;4936005;28;20050;-44
2022/10/02 08:49:05;;;;;;;2.80;0.80;;;17.70;62.60;;;;;;4983369;28;20062;-45
2022/10/02 08:51:54;;;;;;;5.22;1.52;;;17.70;62.10;;;;;;4974826;28;20054;-44
2022/10/02 08:54:54;;;;;;;3.40;0.80;;;17.70;62.20;;;;;;4979915;28;20058;-44
2022/10/02 08:57:44;;;;;;;3.75;0.90;;;17.70;62.20;;;;;;4980541;28;20065;-40
2022/10/02 09:00:21;;;;;;;7.47;1.02;;;17.70;62.20;;;;;;4981449;28;20058;-43
2022/10/02 09:03:30;;;;;;;4.88;1.13;;;17.80;62.30;;;;;;4983809;28;20057;-41
2022/10/02 09:06:39;;;;;;;4.05;1.23;;;17.70;62.50;;;;;;4979990;28;20058;-46
2022/10/02 09:09:44;;;;;;;4.05;1.10;;;17.80;62.60;;;;;;4983480;28;20410;-52
2022/10/02 09:13:02;;;;;;;2.92;0.98;;;17.80;62.70;;;;;;4996379;28;20053;-52
2022/10/02 09:15:44;;;;;;;4.35;1.00;;;17.80;62.80;;;;;;4992053;28;20063;-48
2022/10/02 09:18:18;;;;;;;4.00;1.13;;;17.80;62.90;;;;;;4994250;28;20050;-52
2022/10/02 09:21:08;;;;;;;7.13;0.95;;;17.90;62.60;;;;;;4995094;28;20069;-47
2022/10/02 09:24:06;;;;;;;5.28;1.23;;;17.90;62.60;;;;;;4997746;28;20065;-44
2022/10/02 09:26:51;;;;;;;3.75;1.30;;;17.90;63.20;;;;;;4993709;28;20080;-51
2022/10/02 09:29:59;;;;;;;2.67;1.05;;;17.90;62.80;;;;;;4995221;28;20062;-53
2022/10/02 09:32:58;;;;;;;3.88;1.13;;;17.90;62.60;;;;;;4994965;28;20050;-51
2022/10/02 09:36:00;;;;;;;3.83;0.93;;;18.00;62.50;;;;;;4982481;28;20053;-53
2022/10/02 09:39:12;;;;;;;2.15;0.80;;;18.00;62.50;;;;;;4991052;28;20667;-51
2022/10/02 09:42:15;;;;;;;3.30;1.40;;;18.00;62.60;;;;;;4987129;28;20058;-47
2022/10/02 09:45:23;;;;;;;2.53;1.10;;;18.00;62.60;;;;;;4993519;28;20065;-47
2022/10/02 09:48:29;;;;;;;3.25;1.15;;;18.00;62.90;;;;;;4995632;28;20054;-51
2022/10/02 09:51:25;;;;;;;3.35;1.00;;;18.10;62.60;;;;;;4995726;28;20058;-52
2022/10/02 09:54:25;;;;;;;7.18;1.30;;;18.10;62.60;;;;;;4972041;28;20065;-52
2022/10/02 09:57:30;;;;;;;5.03;1.08;;;18.10;62.40;;;;;;4980695;28;20066;-49
2022/10/02 10:00:03;;;;;;;;;;;18.10;62.30;;;;;;4987608;28;20054;-51
2022/10/02 10:02:50;;;;;;;4.15;1.00;;;18.20;62.20;;;;;;4984489;28;19930;-45
2022/10/02 10:05:43;;;;;;;4.22;1.13;;;18.20;61.80;;;;;;4987133;28;20054;-52
2022/10/02 10:08:38;;;;;;;4.88;1.40;;;18.20;60.20;;;;;;4984984;28;20055;-52
2022/10/02 10:11:57;;;;;;;5.75;0.90;;;18.20;60.70;;;;;;4988843;28;20054;-46
2022/10/02 10:15:06;;;;;;;5.32;0.95;;;18.20;60.20;;;;;;4984033;28;20055;-51
2022/10/02 10:18:30;;;;;;;7.93;1.30;;;18.30;59.60;;;;;;4994442;28;20065;-52
2022/10/02 10:21:27;;;;;;;8.07;1.10;;;18.20;59.10;;;;;;4989824;28;20422;-52
2022/10/02 10:24:24;;;;;;;2.92;0.77;;;18.20;59.00;;;;;;4995958;28;20054;-53
2022/10/02 10:27:42;;;;;;;4.88;1.23;;;18.10;59.30;;;;;;4996211;28;20053;-50
2022/10/02 10:30:27;;;;;;;2.83;1.00;;;18.10;59.50;;;;;;4938699;28;20050;-50
2022/10/02 10:33:12;;;;;;;;;;;18.10;59.30;;;;;;4995448;28;20074;-52
2022/10/02 10:38:31;;;;;;;3.28;0.70;;;18.10;59.40;;;;;;4994059;28;19922;-49
2022/10/02 10:39:19;;;;;;;3.95;1.05;;;18.10;59.40;;;;;;4992205;28;20054;-51
2022/10/02 10:42:14;;;;;;;3.15;0.90;;;18.10;59.20;;;;;;4995358;28;20054;-52
2022/10/02 10:45:18;;;;;;;4.57;0.90;;;18.10;59.50;;;;;;4988385;28;20059;-50
2022/10/02 10:48:06;;;;;;;4.15;1.48;;;18.10;59.40;;;;;;4974283;28;20050;-52
2022/10/02 10:50:53;;;;;;;2.70;0.82;;;18.10;58.70;;;;;;4982403;28;20053;-52
2022/10/02 10:53:45;;;;;;;3.45;0.73;;;18.10;58.90;;;;;;5001723;28;20061;-51
2022/10/02 10:56:35;;;;;;;5.45;1.08;;;18.10;59.10;;;;;;4985693;28;20046;-49
2022/10/02 10:59:53;;;;;;;6.80;1.17;;;18.10;59.00;;;;;;4991525;28;20069;-52
2022/10/02 11:02:53;;;;;;;3.08;0.82;;;18.10;58.90;;;;;;4990589;28;20058;-51
2022/10/02 11:06:02;;;;;;;4.32;1.15;;;18.10;58.90;;;;;;4995245;28;20054;-51
2022/10/02 11:08:57;;;;;;;5.78;1.50;;;18.10;58.70;;;;;;4925170;28;20062;-50
2022/10/02 11:11:32;;;;;;;4.55;1.05;;;18.10;58.80;;;;;;4998876;28;20046;-50
2022/10/02 11:14:18;;;;;;;4.65;1.40;;;18.10;58.80;;;;;;4999665;28;20050;-51
2022/10/02 11:17:12;;;;;;;2.53;0.80;;;18.10;58.90;;;;;;4997990;28;20069;-51
2022/10/02 11:19:51;;;;;;;4.70;1.17;;;18.10;59.00;;;;;;4998718;28;20065;-52
2022/10/02 11:22:53;;;;;;;6.63;1.42;;;18.10;59.00;;;;;;4962945;28;20059;-48
2022/10/02 11:25:33;;;;;;;6.43;1.52;;;18.10;59.10;;;;;;4956015;28;20051;-50
2022/10/02 11:28:39;;;;;;;6.30;1.40;;;18.10;58.90;;;;;;4954189;28;20059;-50
2022/10/02 11:31:21;;;;;;;9.00;1.60;;;18.10;58.80;;;;;;4905358;28;20060;-51
2022/10/02 11:34:16;;;;;;;9.23;1.30;;;18.10;58.90;;;;;;4961086;28;20063;-50
2022/10/02 11:36:59;;;;;;;4.68;1.35;;;18.00;59.00;;;;;;4957646;28;20063;-49
2022/10/02 11:39:42;;;;;;;11.85;1.80;;;18.00;59.00;;;;;;4958919;28;20546;-51
2022/10/02 11:42:38;;;;;;;7.55;1.40;;;18.00;59.20;;;;;;4959748;28;20059;-50
2022/10/02 11:45:32;;;;;;;7.32;1.65;;;18.00;59.50;;;;;;4954813;28;20062;-47
2022/10/02 11:48:37;;;;;;;10.30;1.90;;;17.90;59.10;;;;;;4953965;28;20059;-48
2022/10/02 11:51:30;;;;;;;7.22;1.42;;;17.90;59.40;;;;;;4961089;28;20047;-44
2022/10/02 11:54:22;;;;;;;6.70;1.88;;;17.90;60.40;;;;;;4958134;28;20059;-46
2022/10/02 11:57:18;;;;;;;6.18;1.38;;;17.90;60.00;;;;;;4959189;28;20062;-47
2022/10/02 12:00:17;;;;;;;10.73;1.90;;;18.00;59.90;;;;;;4955579;28;20066;-51
2022/10/02 12:02:54;;;;;;;7.50;1.50;;;18.00;59.90;;;;;;4942660;28;20059;-52
2022/10/02 12:05:53;;;;;;;7.80;1.42;;;18.00;59.50;;;;;;4947881;28;20051;-49
2022/10/02 12:08:33;;;;;;;6.82;1.75;;;18.00;59.20;;;;;;4940882;28;20070;-44
2022/10/02 12:11:10;;;;;;;8.88;1.80;;;18.00;59.50;;;;;;4951881;28;20244;-48
2022/10/02 12:14:00;;;;;;;6.13;1.73;;;17.90;59.50;;;;;;4955310;28;20066;-51
2022/10/02 12:16:50;;;;;;;8.82;1.77;;;18.00;59.50;;;;;;4951982;28;20500;-51
2022/10/02 12:19:30;;;;;;;6.97;1.73;;;18.00;59.50;;;;;;4951959;28;20062;-45
2022/10/02 12:28:06;;;;;;;6.78;1.55;;;18.10;60.40;;;;;;4996457;28;20065;-51
2022/10/02 12:30:42;;;;;;;14.43;1.60;;;18.10;59.80;;;;;;4987530;28;20528;-52
2022/10/02 12:33:20;;;;;;;8.82;2.00;;;18.10;59.40;;;;;;4987443;28;20058;-51
2022/10/02 12:36:12;;;;;;;10.70;2.25;;;18.20;59.20;;;;;;4988987;28;20069;-48
2022/10/02 12:38:53;;;;;;;7.38;2.13;;;18.20;58.70;;;;;;4950474;28;20061;-45
2022/10/02 12:41:36;;;;;;;9.02;1.70;;;18.20;58.80;;;;;;4987184;28;20054;-49
2022/10/02 12:44:24;;;;;;;8.25;1.80;;;18.20;58.80;;;;;;4997711;28;20050;-50
2022/10/02 12:47:25;;;;;;;10.32;1.80;;;18.20;59.00;;;;;;4980494;28;20058;-50
2022/10/02 12:50:10;;;;;;;10.70;1.90;;;18.20;58.80;;;;;;4996980;28;20069;-47
2022/10/02 12:53:15;;;;;;;8.75;2.78;;;18.30;58.90;;;;;;4990505;28;20065;-47
2022/10/02 12:56:10;;;;;;;12.95;3.40;;;18.30;58.80;;;;;;4988271;28;20060;-50
2022/10/02 12:58:51;;;;;;;7.82;1.80;;;18.40;58.60;;;;;;4994565;28;20054;-49
2022/10/02 13:02:06;;;;;;;9.13;2.42;;;18.40;58.30;;;;;;4991622;28;20061;-52
2022/10/02 13:05:06;;;;;;;8.70;1.77;;;18.50;58.40;;;;;;4994113;28;20050;-50
2022/10/02 13:07:58;;;;;;;7.25;1.70;;;18.50;58.30;;;;;;4993977;28;20054;-51
2022/10/02 13:10:29;;;;;;;12.93;2.40;;;18.60;58.30;;;;;;4986198;28;20074;-51
2022/10/02 13:13:12;;;;;;;11.23;2.67;;;18.50;57.90;;;;;;4982179;28;20054;-51
2022/10/02 13:15:52;;;;;;;9.38;1.83;;;18.50;57.60;;;;;;4990922;28;20051;-45
2022/10/02 13:18:43;;;;;;;7.50;2.28;;;18.60;57.90;;;;;;4989180;28;20050;-50
2022/10/02 13:21:20;;;;;;;5.50;1.90;;;18.60;58.00;;;;;;4992135;28;20056;-53
2022/10/02 13:24:02;;;;;;;11.23;2.53;;;18.60;57.80;;;;;;4994884;28;20055;-50
2022/10/02 13:26:38;;;;;;;11.60;2.47;;;18.60;57.90;;;;;;4994300;28;20050;-48
2022/10/02 13:29:29;;;;;;;10.23;2.03;;;18.70;57.80;;;;;;4986221;28;20054;-47
2022/10/02 13:32:38;;;;;;;7.95;2.45;;;18.70;57.50;;;;;;4990104;28;20065;-52
2022/10/02 13:35:31;;;;;;;10.60;2.67;;;18.70;57.30;;;;;;4998015;28;20506;-49
2022/10/02 13:38:22;;;;;;;9.75;2.10;;;18.70;56.90;;;;;;4955176;28;20538;-47
2022/10/02 13:40:57;;;;;;;11.35;2.55;;;18.70;57.50;;;;;;4993203;28;20054;-50
2022/10/02 13:43:39;;;;;;;9.30;2.80;;;18.70;56.90;;;;;;4990843;28;20054;-49
2022/10/02 13:46:16;;;;;;;11.80;2.22;;;18.70;57.00;;;;;;4990481;28;20812;-48
2022/10/02 13:48:58;;;;;;;7.25;2.20;;;18.70;57.10;;;;;;4993362;28;20062;-52
2022/10/02 13:51:34;;;;;;;5.10;1.63;;;18.70;57.10;;;;;;4994404;28;20065;-50
2022/10/02 13:54:38;;;;;;;10.73;1.95;;;18.70;57.00;;;;;;4994554;28;20243;-51
2022/10/02 13:57:15;;;;;;;10.10;2.22;;;18.70;56.90;;;;;;4991755;28;20506;-48
2022/10/02 13:59:57;;;;;;;8.00;2.20;;;18.70;56.90;;;;;;4993225;28;20069;-49
2022/10/02 14:02:48;;;;;;;8.77;2.72;;;18.70;56.60;;;;;;4995855;28;20487;-53
2022/10/02 14:05:32;;;;;;;9.57;2.08;;;18.70;56.60;;;;;;5000481;28;20056;-50
2022/10/02 14:08:13;;;;;;;8.10;2.00;;;18.70;57.10;;;;;;4995793;28;20058;-51
2022/10/02 14:10:53;;;;;;;11.00;2.25;;;18.70;56.80;;;;;;4993656;28;20073;-52
2022/10/02 14:13:47;;;;;;;12.15;2.90;;;18.70;56.70;;;;;;4991572;28;20089;-53
2022/10/02 14:16:26;;;;;;;9.25;2.47;;;18.70;56.60;;;;;;4976764;28;20066;-52